KOCW

Washington-Warren Airport

Washington, North Carolina, USA
METAR KOCW 170400Z AUTO 11003KT 10SM OVC011 19/17 A3009 RMK AO2 T01910169
Observed Flight Rules
Oct-17 @ 04:00 UTC (an hour ago) Marginal Visual Flight Rules
Wind Visibility Clouds
110° at 3 knots 10 miles
  • Overcast at 1,100' AGL
Temperatures Readings
Current 19°C / 66°F
Dewpoint 17°C / 63°F
Humidity 88%
Altimeter 30.09" Hg
Pressure 1019 hPa
Elevation 12
METAR KOCW 170400Z AUTO 11003KT 10SM OVC011 19/17 A3009 RMK AO2 T01910169
Observed Flight Rules
Oct-17 @ 04:00 UTC
(an hour ago)
MVFR
Wind Visibility
110° at 3 knots 10 miles
Clouds
  • Overcast at 1,100' AGL
Temperature Dewpoint
19°C / 66°F 17°C / 63°F
Humidity Altimeter Pressure
88% 30.09" Hg 1019 hPa